PATL/TLJ METAR and TAF weather

Enter ICAO airport designator
Station Type Date Time Source
PATL METAR 2021/05/10 21:55 UTC NOAA

PATL 102155Z 03008KT 10SM BKN075 12/M01 A3000 RMK AO2A SLP163 BWC LOW


Station Type Date Time Source
PATL Decoded METAR 2021/05/10 21:55 UTC NOAA

Takotna, Tatalina LRRS Airport, AK, United States (PATL) 62-54N 155-59W
May 10, 2021 - 05:55 PM EDT / 2021.05.10 2155 UTC
Wind: from the NNE (030 degrees) at 9 MPH (8 KT):0
Visibility: 10 mile(s):0
Sky conditions: mostly cloudy
Temperature: 53 F (12 C)
Dew Point: 30 F (-1 C)
Relative Humidity: 40%
Pressure (altimeter): 30 in. Hg (1015 hPa)
ob: PATL 102155Z 03008KT 10SM BKN075 12/M01 A3000 RMK AO2A SLP163 BWC LOW
cycle: 22

Station Type Date Time Source
PATL TAF 2012/01/12 14:06 UTC NOAA

TAF PATL 1214/1320 VRB06KT 9999 FEW050 SCT110 QNH2998INS TM26/1300Z TM32/1315Z

Example: see airport list